createdAt,value
2019-02-24T00:00:58.311Z,0.10
2019-02-24T00:03:43.309Z,-0.10
2019-02-24T00:06:27.985Z,-0.10
2019-02-24T00:09:12.795Z,0.10
2019-02-24T00:11:58.443Z,-0.10
2019-02-24T00:14:44.972Z,0.20
2019-02-24T00:17:30.213Z,-0.10
2019-02-24T00:20:15.620Z,-0.10
2019-02-24T00:23:01.154Z,-0.10
2019-02-24T00:25:46.577Z,0.00
2019-02-24T00:28:31.780Z,0.00
2019-02-24T00:31:18.223Z,0.00
2019-02-24T00:34:03.726Z,0.00
2019-02-24T00:36:48.757Z,0.00
2019-02-24T00:39:33.996Z,0.00
2019-02-24T00:42:19.886Z,0.00
2019-02-24T00:45:06.772Z,0.00
2019-02-24T00:47:51.725Z,0.00
2019-02-24T00:50:36.913Z,0.00
2019-02-24T00:53:21.990Z,0.10
2019-02-24T00:56:07.567Z,0.10
2019-02-24T00:58:52.831Z,0.10
2019-02-24T01:01:38.394Z,0.30
2019-02-24T01:04:23.384Z,0.10
2019-02-24T01:07:08.568Z,0.10
2019-02-24T01:09:54.690Z,0.60
2019-02-24T01:12:40.325Z,0.50
2019-02-24T01:15:26.119Z,0.10
2019-02-24T01:18:11.358Z,0.20
2019-02-24T01:20:56.377Z,0.20
2019-02-24T01:23:41.795Z,0.20
2019-02-24T01:26:26.922Z,0.30
2019-02-24T01:29:12.385Z,0.20
2019-02-24T01:31:57.433Z,0.20
2019-02-24T01:34:42.805Z,0.20
2019-02-24T01:37:27.440Z,0.20
2019-02-24T01:40:12.357Z,0.20
2019-02-24T01:42:57.421Z,0.20
2019-02-24T01:45:42.144Z,0.20
2019-02-24T01:48:26.755Z,0.30
2019-02-24T01:51:11.658Z,0.20
2019-02-24T01:53:56.769Z,0.10
2019-02-24T01:56:41.479Z,0.10
2019-02-24T01:59:27.044Z,0.20
2019-02-24T02:02:11.960Z,0.10
2019-02-24T02:04:58.526Z,0.20
2019-02-24T02:07:43.484Z,0.20
2019-02-24T02:10:28.166Z,0.20
2019-02-24T02:13:13.599Z,0.50
2019-02-24T02:15:58.599Z,0.40
2019-02-24T02:18:43.632Z,0.30
2019-02-24T02:21:28.878Z,0.20
2019-02-24T02:24:14.172Z,0.10
2019-02-24T02:26:59.189Z,0.10
2019-02-24T02:29:44.203Z,0.20
2019-02-24T02:32:30.748Z,0.20
2019-02-24T02:35:15.795Z,0.20
2019-02-24T02:38:00.561Z,0.20
2019-02-24T02:40:46.011Z,0.10
2019-02-24T02:43:31.130Z,0.20
2019-02-24T02:46:16.357Z,0.20
2019-02-24T02:49:01.175Z,0.20
2019-02-24T02:51:46.421Z,0.20
2019-02-24T02:54:31.651Z,0.20
2019-02-24T02:57:16.410Z,0.20
2019-02-24T03:00:05.215Z,0.40
2019-02-24T03:02:49.965Z,0.30
2019-02-24T03:05:36.598Z,0.40
2019-02-24T03:08:24.825Z,0.20
2019-02-24T03:11:09.733Z,0.50
2019-02-24T03:13:54.723Z,0.20
2019-02-24T03:16:41.733Z,0.40
2019-02-24T03:19:26.876Z,0.20
2019-02-24T03:22:11.975Z,0.20
2019-02-24T03:24:56.958Z,0.30
2019-02-24T03:27:43.536Z,0.30
2019-02-24T03:30:30.349Z,0.30
2019-02-24T03:33:15.403Z,0.30
2019-02-24T03:36:00.904Z,0.30
2019-02-24T03:38:46.208Z,0.30
2019-02-24T03:41:31.935Z,0.30
2019-02-24T03:44:16.974Z,0.30
2019-02-24T03:47:02.542Z,0.30
2019-02-24T03:49:47.579Z,0.30
2019-02-24T03:52:32.816Z,0.30
2019-02-24T03:55:18.514Z,0.30
2019-02-24T03:58:03.609Z,0.30
2019-02-24T04:00:49.035Z,0.30
2019-02-24T04:03:34.256Z,0.40
2019-02-24T04:06:19.413Z,0.40
2019-02-24T04:09:05.610Z,0.40
2019-02-24T04:11:52.814Z,0.40
2019-02-24T04:14:37.559Z,0.40
2019-02-24T04:17:23.197Z,0.40
2019-02-24T04:20:08.566Z,0.40
2019-02-24T04:22:53.547Z,0.60
2019-02-24T04:25:38.741Z,0.40
2019-02-24T04:28:23.606Z,0.50
2019-02-24T04:31:08.350Z,0.50
2019-02-24T04:33:53.476Z,0.50
2019-02-24T04:36:38.532Z,0.50
2019-02-24T04:39:23.590Z,0.50
2019-02-24T04:42:08.878Z,0.50
2019-02-24T04:44:53.675Z,0.50
2019-02-24T04:47:38.922Z,0.50
2019-02-24T04:50:23.652Z,0.50
2019-02-24T04:53:08.460Z,0.90
2019-02-24T04:55:54.097Z,0.50
2019-02-24T04:58:39.188Z,0.50
2019-02-24T05:01:24.815Z,0.50
2019-02-24T05:04:10.121Z,0.50
2019-02-24T05:06:55.797Z,0.50
2019-02-24T05:09:40.739Z,0.50
2019-02-24T05:12:26.154Z,0.40
2019-02-24T05:15:11.239Z,0.40
2019-02-24T05:17:57.105Z,0.50
2019-02-24T05:20:42.560Z,0.40
2019-02-24T05:23:27.818Z,0.40
2019-02-24T05:26:13.686Z,0.40
2019-02-24T05:28:59.474Z,0.40
2019-02-24T05:31:44.850Z,0.40
2019-02-24T05:34:30.069Z,0.40
2019-02-24T05:37:17.129Z,0.40
2019-02-24T05:40:03.095Z,0.50
2019-02-24T05:42:47.846Z,0.40
2019-02-24T05:45:32.552Z,0.40
2019-02-24T05:48:17.280Z,0.40
2019-02-24T05:51:02.038Z,0.40
2019-02-24T05:53:47.421Z,0.30
2019-02-24T05:56:33.083Z,0.30
2019-02-24T05:59:18.055Z,0.30
2019-02-24T06:02:02.958Z,0.30
2019-02-24T06:04:48.446Z,0.20
2019-02-24T06:07:33.338Z,0.20
2019-02-24T06:10:19.140Z,0.30
2019-02-24T06:13:04.495Z,0.20
2019-02-24T06:15:49.987Z,0.20
2019-02-24T06:18:35.046Z,0.20
2019-02-24T06:21:20.725Z,0.20
2019-02-24T06:24:05.900Z,0.20
2019-02-24T06:26:52.036Z,0.20
2019-02-24T06:29:37.121Z,0.30
2019-02-24T06:32:22.279Z,0.30
2019-02-24T06:35:07.364Z,0.30
2019-02-24T06:37:53.229Z,0.30
2019-02-24T06:40:38.662Z,0.60
2019-02-24T06:43:23.644Z,0.30
2019-02-24T06:46:11.193Z,0.30
2019-02-24T06:48:56.184Z,0.20
2019-02-24T06:51:41.608Z,0.30
2019-02-24T06:54:26.942Z,0.30
2019-02-24T06:57:12.259Z,0.30
2019-02-24T06:59:57.699Z,0.40
2019-02-24T07:02:42.869Z,0.30
2019-02-24T07:05:28.043Z,0.50
2019-02-24T07:08:13.098Z,0.40
2019-02-24T07:10:58.147Z,0.50
2019-02-24T07:13:43.242Z,0.60
2019-02-24T07:16:28.575Z,0.80
2019-02-24T07:19:13.967Z,1.10
2019-02-24T07:21:59.052Z,1.00
2019-02-24T07:24:44.088Z,1.10
2019-02-24T07:27:29.223Z,1.20
2019-02-24T07:30:22.819Z,1.30
2019-02-24T07:33:01.577Z,1.70
2019-02-24T07:35:47.048Z,1.50
2019-02-24T07:38:32.559Z,1.70
2019-02-24T07:41:17.821Z,2.00
2019-02-24T07:44:02.811Z,2.30
2019-02-24T07:46:48.187Z,2.20
2019-02-24T07:49:33.592Z,2.30
2019-02-24T07:52:18.698Z,2.20
2019-02-24T07:55:05.408Z,2.30
2019-02-24T07:57:50.301Z,2.50
2019-02-24T08:00:36.080Z,2.30
2019-02-24T08:03:21.145Z,2.30
2019-02-24T08:06:06.099Z,2.60
2019-02-24T08:08:51.235Z,2.40
2019-02-24T08:11:36.007Z,2.40
2019-02-24T08:14:21.232Z,2.40
2019-02-24T08:17:06.530Z,2.50
2019-02-24T08:19:52.146Z,2.50
2019-02-24T08:22:37.364Z,2.50
2019-02-24T08:25:22.782Z,2.70
2019-02-24T08:28:07.991Z,2.90
2019-02-24T08:30:53.213Z,3.20
2019-02-24T08:33:38.937Z,3.40
2019-02-24T08:36:24.041Z,3.40
2019-02-24T08:39:10.664Z,3.30
2019-02-24T08:41:55.786Z,3.20
2019-02-24T08:44:41.075Z,3.20
2019-02-24T08:47:26.306Z,3.20
2019-02-24T08:50:11.957Z,3.20
2019-02-24T08:52:57.377Z,3.20
2019-02-24T08:55:42.377Z,3.20
2019-02-24T08:58:27.332Z,3.30
2019-02-24T09:01:12.489Z,3.50
2019-02-24T09:03:57.682Z,3.50
2019-02-24T09:06:42.678Z,3.60
2019-02-24T09:09:27.546Z,3.80
2019-02-24T09:12:12.420Z,3.80
2019-02-24T09:14:58.790Z,3.90
2019-02-24T09:17:43.864Z,4.00
2019-02-24T09:20:29.129Z,4.10
2019-02-24T09:23:14.210Z,4.30
2019-02-24T09:25:59.513Z,4.30
2019-02-24T09:28:44.939Z,4.30
2019-02-24T09:31:30.180Z,4.40
2019-02-24T09:34:15.276Z,4.50
2019-02-24T09:37:00.555Z,4.70
2019-02-24T09:39:45.690Z,4.80
2019-02-24T09:42:30.553Z,4.80
2019-02-24T09:45:16.067Z,4.90
2019-02-24T09:48:01.301Z,5.00
2019-02-24T09:50:47.012Z,5.40
2019-02-24T09:53:32.400Z,5.70
2019-02-24T09:56:17.773Z,5.80
2019-02-24T09:59:02.905Z,6.00
2019-02-24T10:01:47.796Z,6.50
2019-02-24T10:04:32.879Z,6.80
2019-02-24T10:07:18.014Z,6.60
2019-02-24T10:10:06.975Z,6.50
2019-02-24T10:12:53.766Z,6.40
2019-02-24T10:15:39.323Z,6.40
2019-02-24T10:18:24.333Z,6.30
2019-02-24T10:21:09.762Z,6.30
2019-02-24T10:23:54.633Z,6.50
2019-02-24T10:26:39.860Z,6.80
2019-02-24T10:29:24.929Z,7.20
2019-02-24T10:32:10.579Z,7.10
2019-02-24T10:34:55.725Z,7.00
2019-02-24T10:37:40.793Z,7.10
2019-02-24T10:40:26.107Z,7.30
2019-02-24T10:43:11.150Z,7.40
2019-02-24T10:45:56.071Z,7.60
2019-02-24T10:48:41.466Z,7.60
2019-02-24T10:51:26.593Z,7.50
2019-02-24T10:54:12.085Z,7.40
2019-02-24T10:56:58.039Z,7.40
2019-02-24T10:59:44.045Z,7.50
2019-02-24T11:02:31.138Z,7.70
2019-02-24T11:05:16.044Z,7.70
2019-02-24T11:08:01.190Z,7.80
2019-02-24T11:10:46.271Z,8.00
2019-02-24T11:13:31.590Z,7.90
2019-02-24T11:16:18.746Z,7.90
2019-02-24T11:19:03.797Z,7.90
2019-02-24T11:21:48.827Z,7.90
2019-02-24T11:24:34.438Z,8.00
2019-02-24T11:27:19.250Z,8.00
2019-02-24T11:30:08.268Z,7.90
2019-02-24T11:32:53.739Z,7.90
2019-02-24T11:35:38.942Z,8.00
2019-02-24T11:38:24.377Z,8.20
2019-02-24T11:41:10.009Z,8.30
2019-02-24T11:43:55.054Z,8.30
2019-02-24T11:46:41.516Z,8.20
2019-02-24T11:49:26.795Z,8.30
2019-02-24T11:52:12.007Z,8.30
2019-02-24T11:54:57.285Z,8.30
2019-02-24T11:57:42.539Z,8.40
2019-02-24T12:00:28.099Z,8.40
2019-02-24T12:03:13.311Z,8.40
2019-02-24T12:06:00.169Z,8.30
2019-02-24T12:08:45.424Z,8.40
2019-02-24T12:11:30.670Z,8.40
2019-02-24T12:14:16.065Z,8.60
2019-02-24T12:17:01.636Z,8.70
2019-02-24T12:19:46.885Z,8.80
2019-02-24T12:22:31.960Z,8.90
2019-02-24T12:25:17.337Z,8.90
2019-02-24T12:28:02.768Z,8.90
2019-02-24T12:30:48.393Z,8.90
2019-02-24T12:33:34.604Z,8.80
2019-02-24T12:36:19.372Z,8.80
2019-02-24T12:39:04.529Z,8.70
2019-02-24T12:41:49.437Z,8.80
2019-02-24T12:44:36.352Z,8.80
2019-02-24T12:47:22.341Z,8.90
2019-02-24T12:50:15.335Z,9.00
2019-02-24T12:53:00.641Z,9.00
2019-02-24T12:55:46.304Z,9.10
2019-02-24T12:58:31.562Z,9.20
2019-02-24T13:01:16.609Z,9.30
2019-02-24T13:04:02.119Z,9.40
2019-02-24T13:06:47.197Z,9.40
2019-02-24T13:09:33.768Z,9.60
2019-02-24T13:12:19.488Z,9.60
2019-02-24T13:15:06.278Z,9.70
2019-02-24T13:17:52.466Z,9.70
2019-02-24T13:20:38.154Z,9.70
2019-02-24T13:23:23.165Z,9.70
2019-02-24T13:26:28.114Z,9.80
2019-02-24T13:29:15.095Z,9.90
2019-02-24T13:32:00.399Z,9.90
2019-02-24T13:34:45.452Z,10.20
2019-02-24T13:37:31.282Z,10.20
2019-02-24T13:40:18.384Z,10.10
2019-02-24T13:43:03.522Z,10.30
2019-02-24T13:45:48.576Z,10.30
2019-02-24T13:48:34.999Z,10.40
2019-02-24T13:51:20.120Z,10.40
2019-02-24T13:54:05.393Z,10.50
2019-02-24T13:56:51.097Z,10.50
2019-02-24T13:59:36.199Z,10.60
2019-02-24T14:02:23.990Z,10.60
2019-02-24T14:05:08.472Z,10.70
2019-02-24T14:07:54.788Z,10.70
2019-02-24T14:10:39.867Z,10.60
2019-02-24T14:13:24.663Z,10.60
2019-02-24T14:16:09.712Z,10.60
2019-02-24T14:18:55.068Z,10.60
2019-02-24T14:21:40.132Z,10.80
2019-02-24T14:24:26.731Z,10.80
2019-02-24T14:27:11.699Z,10.70
2019-02-24T14:29:56.969Z,10.80
2019-02-24T14:32:43.998Z,10.80
2019-02-24T14:35:31.158Z,10.80
2019-02-24T14:38:16.142Z,10.80
2019-02-24T14:41:01.559Z,10.80
2019-02-24T14:43:46.946Z,10.80
2019-02-24T14:46:32.041Z,10.80
2019-02-24T14:49:17.579Z,10.70
2019-02-24T14:52:02.898Z,10.70
2019-02-24T14:54:48.696Z,10.70
2019-02-24T14:57:33.882Z,10.70
2019-02-24T15:00:23.006Z,10.70
2019-02-24T15:03:07.869Z,10.80
2019-02-24T15:05:52.983Z,10.70
2019-02-24T15:08:37.919Z,10.60
2019-02-24T15:11:23.385Z,10.60
2019-02-24T15:14:10.891Z,10.50
2019-02-24T15:16:56.303Z,10.40
2019-02-24T15:19:41.647Z,10.40
2019-02-24T15:22:26.762Z,10.40
2019-02-24T15:25:14.859Z,10.40
2019-02-24T15:27:59.747Z,10.30
2019-02-24T15:30:48.098Z,10.20
2019-02-24T15:33:33.165Z,10.20
2019-02-24T15:36:18.701Z,10.10
2019-02-24T15:39:04.774Z,10.10
2019-02-24T15:41:49.658Z,10.10
2019-02-24T15:44:35.059Z,10.10
2019-02-24T15:47:20.033Z,10.00
2019-02-24T15:50:08.519Z,9.90
2019-02-24T15:52:53.588Z,9.90
2019-02-24T15:55:39.194Z,9.90
2019-02-24T15:58:24.518Z,9.90
2019-02-24T16:01:09.399Z,9.70
2019-02-24T16:03:54.674Z,9.70
2019-02-24T16:06:40.315Z,9.60
2019-02-24T16:09:25.305Z,9.60
2019-02-24T16:12:10.578Z,9.50
2019-02-24T16:14:55.735Z,9.50
2019-02-24T16:17:40.997Z,9.50
2019-02-24T16:20:28.681Z,9.30
2019-02-24T16:23:13.689Z,9.30
2019-02-24T16:25:59.828Z,9.20
2019-02-24T16:28:44.905Z,9.20
2019-02-24T16:31:32.830Z,9.20
2019-02-24T16:34:18.122Z,9.10
2019-02-24T16:37:03.375Z,9.10
2019-02-24T16:39:49.053Z,9.00
2019-02-24T16:42:34.363Z,8.90
2019-02-24T16:45:19.676Z,8.90
2019-02-24T16:48:05.205Z,8.90
2019-02-24T16:50:50.080Z,8.80
2019-02-24T16:53:35.544Z,8.80
2019-02-24T16:56:20.422Z,8.70
2019-02-24T16:59:07.792Z,8.60
2019-02-24T17:01:53.022Z,8.60
2019-02-24T17:04:38.735Z,8.70
2019-02-24T17:07:24.309Z,8.70
2019-02-24T17:10:16.018Z,8.70
2019-02-24T17:13:01.954Z,8.50
2019-02-24T17:15:47.222Z,8.50
2019-02-24T17:18:32.351Z,8.40
2019-02-24T17:21:18.616Z,8.30
2019-02-24T17:24:03.934Z,8.20
2019-02-24T17:26:49.127Z,8.00
2019-02-24T17:29:36.427Z,7.80
2019-02-24T17:32:21.908Z,7.60
2019-02-24T17:35:09.118Z,7.50
2019-02-24T17:37:54.520Z,7.30
2019-02-24T17:40:39.955Z,7.20
2019-02-24T17:43:25.086Z,7.20
2019-02-24T17:46:11.998Z,7.20
2019-02-24T17:48:57.425Z,7.10
2019-02-24T17:51:42.687Z,7.00
2019-02-24T17:54:27.643Z,7.00
2019-02-24T17:57:12.531Z,6.90
2019-02-24T17:59:57.707Z,6.90
2019-02-24T18:02:44.603Z,6.80
2019-02-24T18:05:29.879Z,6.80
2019-02-24T18:08:16.301Z,6.70
2019-02-24T18:11:01.346Z,6.70
2019-02-24T18:13:46.175Z,6.50
2019-02-24T18:16:32.493Z,6.40
2019-02-24T18:19:17.753Z,6.20
2019-02-24T18:22:03.127Z,6.10
2019-02-24T18:24:48.604Z,6.00
2019-02-24T18:27:33.600Z,6.00
2019-02-24T18:30:29.525Z,5.90
2019-02-24T18:33:15.238Z,5.90
2019-02-24T18:36:00.501Z,5.90
2019-02-24T18:38:46.080Z,5.80
2019-02-24T18:41:30.916Z,5.60
2019-02-24T18:44:16.843Z,5.60
2019-02-24T18:47:02.396Z,5.50
2019-02-24T18:49:47.508Z,5.50
2019-02-24T18:52:32.794Z,5.60
2019-02-24T18:55:17.866Z,5.70
2019-02-24T18:58:03.314Z,5.70
2019-02-24T19:00:48.742Z,5.70
2019-02-24T19:03:34.562Z,5.80
2019-02-24T19:06:19.589Z,5.80
2019-02-24T19:09:05.629Z,5.80
2019-02-24T19:11:50.727Z,5.80
2019-02-24T19:14:36.375Z,5.80
2019-02-24T19:17:21.715Z,5.70
2019-02-24T19:20:10.796Z,5.70
2019-02-24T19:22:56.559Z,5.90
2019-02-24T19:25:41.932Z,5.60
2019-02-24T19:28:27.190Z,5.50
2019-02-24T19:31:12.139Z,5.50
2019-02-24T19:34:31.786Z,5.40
2019-02-24T19:37:16.825Z,5.30
2019-02-24T19:40:02.902Z,5.20
2019-02-24T19:42:47.969Z,5.10
2019-02-24T19:45:33.211Z,5.10
2019-02-24T19:48:19.365Z,5.20
2019-02-24T19:51:06.682Z,5.30
2019-02-24T19:53:51.488Z,5.30
2019-02-24T19:56:36.602Z,5.20
2019-02-24T19:59:21.978Z,5.20
2019-02-24T20:02:07.153Z,5.20
2019-02-24T20:04:55.442Z,5.10
2019-02-24T20:07:41.887Z,5.30
2019-02-24T20:10:29.512Z,5.10
2019-02-24T20:13:14.901Z,5.00
2019-02-24T20:16:00.299Z,5.10
2019-02-24T20:18:45.390Z,4.90
2019-02-24T20:21:30.654Z,5.00
2019-02-24T20:24:15.825Z,5.00
2019-02-24T20:27:00.991Z,4.90
2019-02-24T20:29:46.130Z,4.90
2019-02-24T20:32:32.569Z,4.90
2019-02-24T20:35:17.963Z,4.90
2019-02-24T20:38:03.235Z,4.90
2019-02-24T20:40:49.256Z,4.90
2019-02-24T20:43:34.554Z,4.90
2019-02-24T20:46:19.920Z,4.90
2019-02-24T20:49:05.680Z,4.90
2019-02-24T20:51:51.128Z,4.90
2019-02-24T20:54:36.091Z,4.90
2019-02-24T20:57:21.425Z,4.90
2019-02-24T21:00:10.510Z,4.90
2019-02-24T21:02:55.767Z,4.90
2019-02-24T21:05:42.483Z,5.00
2019-02-24T21:08:28.391Z,4.90
2019-02-24T21:11:14.918Z,5.10
2019-02-24T21:13:59.833Z,4.80
2019-02-24T21:16:45.069Z,4.80
2019-02-24T21:19:30.685Z,4.80
2019-02-24T21:22:15.805Z,4.70
2019-02-24T21:25:01.168Z,4.70
2019-02-24T21:27:46.805Z,4.70
2019-02-24T21:30:31.981Z,4.70
2019-02-24T21:33:17.195Z,4.80
2019-02-24T21:36:02.679Z,4.80
2019-02-24T21:38:48.128Z,4.70
2019-02-24T21:41:33.364Z,4.70
2019-02-24T21:44:19.281Z,4.60
2019-02-24T21:47:04.528Z,4.50
2019-02-24T21:49:49.701Z,4.50
2019-02-24T21:52:34.975Z,4.50
2019-02-24T21:55:20.153Z,4.50
2019-02-24T21:58:05.942Z,4.50
2019-02-24T22:00:51.422Z,4.50
2019-02-24T22:03:38.463Z,4.50
2019-02-24T22:06:23.720Z,4.50
2019-02-24T22:09:10.116Z,4.50
2019-02-24T22:11:54.974Z,4.30
2019-02-24T22:14:40.859Z,4.20
2019-02-24T22:17:26.035Z,4.10
2019-02-24T22:20:16.460Z,4.00
2019-02-24T22:23:02.253Z,4.00
2019-02-24T22:25:47.626Z,4.00
2019-02-24T22:28:32.876Z,3.90
2019-02-24T22:31:19.619Z,3.90
2019-02-24T22:34:05.236Z,3.70
2019-02-24T22:36:50.959Z,3.80
2019-02-24T22:39:35.989Z,3.80
2019-02-24T22:42:21.580Z,3.70
2019-02-24T22:45:12.514Z,3.80
2019-02-24T22:47:57.370Z,3.90
2019-02-24T22:50:42.615Z,3.80
2019-02-24T22:53:28.027Z,3.80
2019-02-24T22:56:13.136Z,3.80
2019-02-24T22:58:58.657Z,3.80
2019-02-24T23:01:44.606Z,3.70
2019-02-24T23:04:30.548Z,3.70
2019-02-24T23:07:15.870Z,3.70
2019-02-24T23:10:00.824Z,3.70
2019-02-24T23:12:46.253Z,3.60
2019-02-24T23:15:33.527Z,3.50
2019-02-24T23:18:20.067Z,3.50
2019-02-24T23:21:05.148Z,3.70
2019-02-24T23:23:52.270Z,3.40
2019-02-24T23:26:37.057Z,3.40
2019-02-24T23:29:22.104Z,3.40
2019-02-24T23:32:07.270Z,3.40
2019-02-24T23:34:52.652Z,3.30
2019-02-24T23:37:38.540Z,3.30
2019-02-24T23:40:23.594Z,3.40
2019-02-24T23:43:10.585Z,3.20
2019-02-24T23:45:55.676Z,3.20
2019-02-24T23:48:40.415Z,3.20
2019-02-24T23:51:25.183Z,3.20
2019-02-24T23:54:10.582Z,3.20
2019-02-24T23:56:55.939Z,3.10
2019-02-24T23:59:40.913Z,3.10
